createdAt,value
2022-12-29T00:00:26.390Z,8.93
2022-12-29T00:01:47.264Z,8.27
2022-12-29T00:02:47.608Z,8.20
2022-12-29T00:03:48.428Z,8.94
2022-12-29T00:04:51.672Z,8.32
2022-12-29T00:05:56.274Z,8.45
2022-12-29T00:06:56.852Z,8.85
2022-12-29T00:07:57.211Z,8.67
2022-12-29T00:08:57.522Z,8.41
2022-12-29T00:11:51.241Z,8.66
2022-12-29T00:13:11.668Z,8.83
2022-12-29T00:14:32.597Z,9.67
2022-12-29T00:15:39.494Z,8.86
2022-12-29T00:16:45.816Z,8.71
2022-12-29T00:17:47.475Z,8.74
2022-12-29T00:18:49.503Z,8.85
2022-12-29T00:20:10.258Z,8.49
2022-12-29T00:21:35.565Z,8.85
2022-12-29T00:22:55.950Z,8.85
2022-12-29T00:24:16.326Z,8.58
2022-12-29T00:26:04.939Z,9.33
2022-12-29T00:27:26.087Z,8.80
2022-12-29T00:28:46.997Z,8.98
2022-12-29T00:30:08.096Z,9.48
2022-12-29T00:31:31.231Z,9.38
2022-12-29T00:32:53.657Z,8.10
2022-12-29T00:34:14.635Z,8.75
2022-12-29T00:35:25.170Z,8.43
2022-12-29T00:36:32.906Z,7.96
2022-12-29T00:37:55.471Z,9.24
2022-12-29T00:39:19.471Z,8.67
2022-12-29T00:40:40.013Z,9.68
2022-12-29T00:42:00.717Z,9.19
2022-12-29T00:43:21.369Z,8.70
2022-12-29T00:44:23.564Z,8.94
2022-12-29T00:45:25.382Z,9.89
2022-12-29T00:46:27.246Z,8.80
2022-12-29T00:47:29.452Z,8.83
2022-12-29T00:48:49.920Z,10.07
2022-12-29T00:49:51.917Z,9.62
2022-12-29T00:50:57.019Z,8.08
2022-12-29T00:52:09.744Z,7.98
2022-12-29T00:53:11.502Z,7.77
2022-12-29T00:54:13.535Z,8.13
2022-12-29T00:55:15.950Z,8.56
2022-12-29T00:56:18.214Z,8.69
2022-12-29T00:57:20.444Z,7.89
2022-12-29T00:58:22.142Z,8.16
2022-12-29T00:59:25.195Z,8.20
2022-12-29T01:00:26.944Z,7.88
2022-12-29T01:01:28.787Z,8.15
2022-12-29T01:02:31.790Z,8.07
2022-12-29T01:03:34.925Z,8.87
2022-12-29T01:04:36.759Z,7.83
2022-12-29T01:05:38.529Z,8.36
2022-12-29T01:06:42.558Z,8.28
2022-12-29T01:07:44.305Z,7.80
2022-12-29T01:08:46.058Z,7.62
2022-12-29T01:10:07.873Z,7.96
2022-12-29T01:11:12.411Z,7.83
2022-12-29T01:12:14.369Z,7.76
2022-12-29T01:13:16.604Z,7.64
2022-12-29T01:14:19.684Z,7.72
2022-12-29T01:15:21.409Z,7.88
2022-12-29T01:16:24.004Z,7.47
2022-12-29T01:17:25.670Z,7.59
2022-12-29T01:18:28.241Z,7.71
2022-12-29T01:19:29.918Z,7.53
2022-12-29T01:20:31.662Z,7.84
2022-12-29T01:21:33.940Z,7.53
2022-12-29T01:22:35.624Z,7.08
2022-12-29T01:23:37.319Z,7.93
2022-12-29T01:24:41.765Z,7.06
2022-12-29T01:25:43.634Z,7.59
2022-12-29T01:26:46.688Z,8.48
2022-12-29T01:27:48.430Z,7.14
2022-12-29T01:28:50.219Z,7.57
2022-12-29T01:29:52.102Z,7.49
2022-12-29T01:30:53.812Z,7.83
2022-12-29T01:31:55.529Z,7.33
2022-12-29T01:32:58.434Z,7.46
2022-12-29T01:34:00.292Z,6.61
2022-12-29T01:35:02.221Z,7.20
2022-12-29T01:36:05.541Z,6.97
2022-12-29T01:37:07.391Z,6.99
2022-12-29T01:38:09.337Z,7.24
2022-12-29T01:39:11.108Z,6.77
2022-12-29T01:40:13.207Z,6.88
2022-12-29T01:41:16.877Z,7.32
2022-12-29T01:42:20.944Z,6.84
2022-12-29T01:43:22.852Z,7.42
2022-12-29T01:44:43.652Z,7.38
2022-12-29T01:45:50.446Z,7.04
2022-12-29T01:46:52.513Z,6.65
2022-12-29T01:48:01.397Z,6.83
2022-12-29T01:49:12.836Z,6.95
2022-12-29T01:50:23.565Z,6.88
2022-12-29T01:51:27.398Z,6.76
2022-12-29T01:52:35.555Z,7.05
2022-12-29T01:53:48.029Z,6.11
2022-12-29T01:54:54.581Z,6.70
2022-12-29T01:56:02.031Z,6.32
2022-12-29T01:57:07.217Z,6.36
2022-12-29T01:58:12.223Z,6.66
2022-12-29T01:59:21.227Z,7.33
2022-12-29T02:00:23.238Z,6.83
2022-12-29T02:01:25.240Z,6.55
2022-12-29T02:02:32.453Z,6.39
2022-12-29T02:03:37.204Z,6.21
2022-12-29T02:04:45.353Z,5.83
2022-12-29T02:05:58.853Z,5.97
2022-12-29T02:07:04.183Z,6.05
2022-12-29T02:08:06.624Z,6.03
2022-12-29T02:09:09.823Z,6.66
2022-12-29T02:10:11.603Z,6.50
2022-12-29T02:11:13.964Z,6.45
2022-12-29T02:12:16.957Z,6.41
2022-12-29T02:13:19.763Z,6.06
2022-12-29T02:14:21.519Z,6.01
2022-12-29T02:15:36.876Z,6.28
2022-12-29T02:16:51.614Z,5.70
2022-12-29T02:18:12.192Z,5.82
2022-12-29T02:19:17.366Z,5.96
2022-12-29T02:20:25.575Z,5.96
2022-12-29T02:21:53.580Z,6.33
2022-12-29T02:23:14.191Z,6.40
2022-12-29T02:24:36.547Z,6.37
2022-12-29T02:25:57.125Z,6.07
2022-12-29T02:26:58.775Z,6.54
2022-12-29T02:28:09.531Z,6.24
2022-12-29T02:29:26.841Z,6.15
2022-12-29T02:30:34.642Z,5.90
2022-12-29T02:31:42.518Z,5.97
2022-12-29T02:33:03.178Z,6.00
2022-12-29T02:34:16.052Z,6.30
2022-12-29T02:35:33.553Z,6.05
2022-12-29T02:36:54.648Z,6.38
2022-12-29T02:38:08.688Z,5.85
2022-12-29T02:39:29.331Z,5.96
2022-12-29T02:40:43.421Z,6.14
2022-12-29T02:42:06.596Z,5.62
2022-12-29T02:43:17.320Z,5.76
2022-12-29T02:44:29.396Z,6.14
2022-12-29T02:45:49.687Z,5.40
2022-12-29T02:47:04.857Z,6.57
2022-12-29T02:48:15.810Z,6.06
2022-12-29T02:49:28.686Z,6.45
2022-12-29T02:50:36.545Z,6.27
2022-12-29T02:51:58.687Z,5.99
2022-12-29T02:53:03.051Z,6.34
2022-12-29T02:54:23.535Z,5.88
2022-12-29T02:55:25.452Z,5.90
2022-12-29T02:56:27.359Z,6.45
2022-12-29T02:57:34.459Z,6.31
2022-12-29T02:58:36.722Z,6.18
2022-12-29T02:59:38.678Z,5.97
2022-12-29T03:00:50.192Z,6.43
2022-12-29T03:02:18.065Z,5.99
2022-12-29T03:03:26.475Z,5.69
2022-12-29T03:04:44.397Z,6.00
2022-12-29T03:05:54.947Z,5.57
2022-12-29T03:06:57.121Z,5.57
2022-12-29T03:08:18.787Z,5.44
2022-12-29T03:09:36.577Z,5.86
2022-12-29T03:11:02.149Z,6.02
2022-12-29T03:12:22.436Z,6.05
2022-12-29T03:13:42.978Z,5.76
2022-12-29T03:15:17.449Z,6.46
2022-12-29T03:16:35.932Z,6.77
2022-12-29T03:17:52.839Z,6.87
2022-12-29T03:18:54.443Z,6.67
2022-12-29T03:20:02.920Z,6.71
2022-12-29T03:21:17.215Z,6.69
2022-12-29T03:22:27.962Z,6.73
2022-12-29T03:23:36.139Z,6.76
2022-12-29T03:24:42.000Z,7.37
2022-12-29T03:25:55.274Z,6.51
2022-12-29T03:26:59.909Z,6.61
2022-12-29T03:28:08.884Z,5.95
2022-12-29T03:29:17.023Z,6.36
2022-12-29T03:30:20.280Z,5.93
2022-12-29T03:31:24.909Z,5.96
2022-12-29T03:32:33.418Z,6.60
2022-12-29T03:33:37.444Z,6.29
2022-12-29T03:34:39.949Z,6.48
2022-12-29T03:35:44.138Z,6.95
2022-12-29T03:37:02.011Z,6.65
2022-12-29T03:38:20.953Z,6.14
2022-12-29T03:39:24.901Z,6.72
2022-12-29T03:40:29.214Z,6.71
2022-12-29T03:41:33.104Z,5.90
2022-12-29T03:42:38.273Z,5.97
2022-12-29T03:43:40.207Z,5.48
2022-12-29T03:44:44.381Z,5.94
2022-12-29T03:45:47.961Z,6.55
2022-12-29T03:46:49.634Z,6.13
2022-12-29T03:47:53.579Z,6.52
2022-12-29T03:48:55.812Z,5.90
2022-12-29T03:49:59.016Z,6.43
2022-12-29T03:51:01.166Z,6.04
2022-12-29T03:52:03.278Z,6.31
2022-12-29T03:53:06.461Z,5.99
2022-12-29T03:54:08.423Z,6.69
2022-12-29T03:55:10.828Z,6.70
2022-12-29T03:56:13.518Z,6.63
2022-12-29T03:57:16.058Z,7.33
2022-12-29T03:58:30.606Z,7.02
2022-12-29T03:59:45.442Z,6.81
2022-12-29T04:00:47.243Z,6.65
2022-12-29T04:01:49.165Z,6.65
2022-12-29T04:02:51.283Z,6.42
2022-12-29T04:03:56.009Z,6.32
2022-12-29T04:04:57.917Z,6.80
2022-12-29T04:05:59.611Z,6.39
2022-12-29T04:07:03.151Z,6.16
2022-12-29T04:08:05.417Z,6.42
2022-12-29T04:09:07.771Z,5.97
2022-12-29T04:10:15.192Z,5.83
2022-12-29T04:11:20.220Z,5.69
2022-12-29T04:12:21.864Z,5.62
2022-12-29T04:13:23.620Z,6.00
2022-12-29T04:14:27.244Z,5.93
2022-12-29T04:15:29.221Z,5.98
2022-12-29T04:16:31.179Z,6.20
2022-12-29T04:17:33.132Z,5.69
2022-12-29T04:18:35.888Z,5.84
2022-12-29T04:19:37.624Z,5.74
2022-12-29T04:20:58.237Z,5.87
2022-12-29T04:22:00.040Z,5.65
2022-12-29T04:23:03.213Z,5.79
2022-12-29T04:24:07.610Z,5.50
2022-12-29T04:25:13.253Z,6.02
2022-12-29T04:26:15.177Z,5.82
2022-12-29T04:27:32.957Z,5.99
2022-12-29T04:28:57.922Z,6.12
2022-12-29T04:30:26.993Z,6.54
2022-12-29T04:31:39.667Z,6.32
2022-12-29T04:32:42.264Z,6.48
2022-12-29T04:33:44.290Z,6.67
2022-12-29T04:34:46.069Z,6.42
2022-12-29T04:35:48.177Z,6.48
2022-12-29T04:36:50.077Z,6.55
2022-12-29T04:37:52.509Z,6.74
2022-12-29T04:38:54.179Z,6.62
2022-12-29T04:39:55.887Z,6.03
2022-12-29T04:41:00.341Z,6.06
2022-12-29T04:42:02.587Z,6.53
2022-12-29T04:43:04.927Z,6.14
2022-12-29T04:44:10.602Z,5.92
2022-12-29T04:45:30.976Z,6.74
2022-12-29T04:46:44.331Z,6.75
2022-12-29T04:48:08.554Z,7.18
2022-12-29T04:49:19.976Z,6.91
2022-12-29T04:50:41.334Z,6.29
2022-12-29T04:51:50.776Z,6.60
2022-12-29T04:52:53.457Z,6.32
2022-12-29T04:53:56.472Z,6.41
2022-12-29T04:54:59.064Z,6.54
2022-12-29T04:56:00.822Z,6.21
2022-12-29T04:57:03.189Z,7.15
2022-12-29T04:58:05.073Z,6.57
2022-12-29T04:59:08.636Z,6.56
2022-12-29T05:00:11.095Z,6.71
2022-12-29T05:01:13.080Z,6.81
2022-12-29T05:02:17.157Z,6.68
2022-12-29T05:03:22.417Z,6.95
2022-12-29T05:04:25.279Z,7.03
2022-12-29T05:05:28.870Z,7.26
2022-12-29T05:06:31.606Z,6.99
2022-12-29T05:07:34.654Z,6.64
2022-12-29T05:08:36.914Z,6.44
2022-12-29T05:09:38.712Z,6.84
2022-12-29T05:10:41.021Z,6.74
2022-12-29T05:11:46.992Z,6.83
2022-12-29T05:12:49.494Z,6.14
2022-12-29T05:13:51.202Z,6.66
2022-12-29T05:14:52.977Z,6.47
2022-12-29T05:15:55.114Z,6.60
2022-12-29T05:17:36.486Z,6.66
2022-12-29T05:18:56.863Z,6.43
2022-12-29T05:19:58.885Z,6.22
2022-12-29T05:21:00.798Z,6.05
2022-12-29T05:22:03.609Z,6.19
2022-12-29T05:23:06.002Z,6.14
2022-12-29T05:24:08.115Z,6.28
2022-12-29T05:25:10.303Z,6.50
2022-12-29T05:26:25.161Z,6.58
2022-12-29T05:27:42.782Z,6.26
2022-12-29T05:28:53.319Z,6.36
2022-12-29T05:29:55.822Z,6.22
2022-12-29T05:30:57.783Z,6.50
2022-12-29T05:32:00.211Z,6.60
2022-12-29T05:33:02.963Z,6.43
2022-12-29T05:34:05.026Z,6.25
2022-12-29T05:35:07.472Z,6.50
2022-12-29T05:36:10.934Z,6.51
2022-12-29T05:37:16.735Z,6.40
2022-12-29T05:38:20.221Z,6.40
2022-12-29T05:39:21.892Z,6.35
2022-12-29T05:40:28.859Z,5.66
2022-12-29T05:41:34.605Z,6.30
2022-12-29T05:42:42.468Z,6.13
2022-12-29T05:44:07.781Z,6.15
2022-12-29T05:45:19.446Z,5.64
2022-12-29T05:46:59.761Z,5.87
2022-12-29T05:48:45.122Z,5.91
2022-12-29T05:49:59.847Z,6.01
2022-12-29T05:51:07.538Z,5.99
2022-12-29T05:52:52.240Z,5.72
2022-12-29T05:53:54.726Z,5.46
2022-12-29T05:54:57.504Z,5.64
2022-12-29T05:56:01.149Z,6.00
2022-12-29T05:57:03.617Z,6.48
2022-12-29T05:58:06.087Z,6.30
2022-12-29T05:59:07.885Z,8.04
2022-12-29T06:00:10.382Z,7.88
2022-12-29T06:01:18.574Z,5.96
2022-12-29T06:02:20.719Z,6.06
2022-12-29T06:03:23.286Z,6.14
2022-12-29T06:04:27.249Z,5.82
2022-12-29T06:05:29.369Z,5.88
2022-12-29T06:06:31.159Z,6.32
2022-12-29T06:07:33.515Z,5.97
2022-12-29T06:08:35.472Z,5.92
2022-12-29T06:09:37.303Z,6.20
2022-12-29T06:10:40.153Z,6.13
2022-12-29T06:11:44.364Z,6.09
2022-12-29T06:12:46.530Z,6.49
2022-12-29T06:13:49.795Z,6.06
2022-12-29T06:14:52.383Z,6.27
2022-12-29T06:15:54.257Z,6.43
2022-12-29T06:16:56.864Z,6.32
2022-12-29T06:17:59.541Z,37.14
2022-12-29T06:19:01.467Z,29.06
2022-12-29T06:20:04.243Z,8.97
2022-12-29T06:21:06.224Z,6.47
2022-12-29T06:22:08.619Z,6.70
2022-12-29T06:23:13.137Z,6.80
2022-12-29T06:24:15.126Z,6.74
2022-12-29T06:25:17.723Z,6.45
2022-12-29T06:26:19.996Z,5.62
2022-12-29T06:27:23.869Z,6.28
2022-12-29T06:28:27.495Z,6.02
2022-12-29T06:29:29.545Z,6.62
2022-12-29T06:30:33.620Z,6.81
2022-12-29T06:31:37.352Z,6.34
2022-12-29T06:32:40.979Z,6.34
2022-12-29T06:33:49.696Z,7.00
2022-12-29T06:34:52.355Z,6.60
2022-12-29T06:35:54.247Z,6.47
2022-12-29T06:36:56.112Z,6.43
2022-12-29T06:37:58.600Z,6.41
2022-12-29T06:39:00.417Z,6.79
2022-12-29T06:40:02.842Z,6.58
2022-12-29T06:41:16.820Z,6.57
2022-12-29T06:42:38.440Z,6.63
2022-12-29T06:44:06.446Z,6.63
2022-12-29T06:45:26.847Z,6.64
2022-12-29T06:46:28.737Z,6.46
2022-12-29T06:47:30.831Z,6.42
2022-12-29T06:48:32.752Z,6.55
2022-12-29T06:49:34.767Z,7.40
2022-12-29T06:50:36.715Z,6.66
2022-12-29T06:51:38.568Z,6.57
2022-12-29T06:52:40.347Z,6.47
2022-12-29T06:53:42.307Z,6.26
2022-12-29T06:54:44.042Z,5.96
2022-12-29T06:55:45.782Z,6.29
2022-12-29T06:56:47.570Z,6.78
2022-12-29T06:57:49.349Z,6.64
2022-12-29T06:58:51.175Z,6.56
2022-12-29T06:59:53.363Z,6.15
2022-12-29T07:00:55.344Z,6.74
2022-12-29T07:01:57.268Z,7.24
2022-12-29T07:02:59.652Z,6.46
2022-12-29T07:04:01.737Z,6.71
2022-12-29T07:05:03.535Z,6.90
2022-12-29T07:06:05.741Z,7.06
2022-12-29T07:07:07.666Z,6.20
2022-12-29T07:08:09.561Z,6.51
2022-12-29T07:09:11.841Z,6.44
2022-12-29T07:10:13.740Z,6.67
2022-12-29T07:11:15.612Z,6.42
2022-12-29T07:12:17.487Z,6.56
2022-12-29T07:13:19.290Z,6.28
2022-12-29T07:14:21.443Z,6.31
2022-12-29T07:15:23.340Z,6.03
2022-12-29T07:16:25.283Z,6.03
2022-12-29T07:17:27.200Z,6.05
2022-12-29T07:18:28.951Z,6.02
2022-12-29T07:19:30.773Z,6.27
2022-12-29T07:20:33.433Z,6.00
2022-12-29T07:21:35.275Z,6.64
2022-12-29T07:22:37.469Z,6.67
2022-12-29T07:23:39.237Z,6.55
2022-12-29T07:24:41.824Z,6.46
2022-12-29T07:25:44.041Z,6.97
2022-12-29T07:26:45.793Z,6.34
2022-12-29T07:27:47.844Z,6.48
2022-12-29T07:28:49.726Z,6.87
2022-12-29T07:29:51.542Z,6.76
2022-12-29T07:30:53.369Z,7.93
2022-12-29T07:31:55.244Z,12.15
2022-12-29T07:32:57.696Z,10.49
2022-12-29T07:33:59.434Z,10.96
2022-12-29T07:35:01.347Z,13.06
2022-12-29T07:36:03.633Z,12.95
2022-12-29T07:37:05.608Z,8.99
2022-12-29T07:38:07.405Z,6.89
2022-12-29T07:39:09.533Z,7.78
2022-12-29T07:40:11.659Z,8.00
2022-12-29T07:41:13.887Z,8.25
2022-12-29T07:42:16.039Z,7.93
2022-12-29T07:43:23.978Z,7.91
2022-12-29T07:44:47.955Z,7.83
2022-12-29T07:46:13.253Z,7.46
2022-12-29T07:47:31.978Z,6.95
2022-12-29T07:48:37.190Z,7.57
2022-12-29T07:49:39.050Z,7.09
2022-12-29T07:50:40.857Z,7.01
2022-12-29T07:51:43.192Z,8.24
2022-12-29T07:52:45.900Z,7.39
2022-12-29T07:53:47.813Z,7.72
2022-12-29T07:54:49.606Z,7.84
2022-12-29T07:55:51.468Z,8.96
2022-12-29T07:56:53.670Z,8.32
2022-12-29T07:57:56.206Z,7.53
2022-12-29T07:58:58.006Z,8.11
2022-12-29T08:00:00.247Z,8.26
2022-12-29T08:01:02.022Z,9.17
2022-12-29T08:02:03.778Z,8.92
2022-12-29T08:03:06.483Z,8.09
2022-12-29T08:04:08.562Z,7.36
2022-12-29T08:05:10.367Z,7.34
2022-12-29T08:06:12.187Z,8.09
2022-12-29T08:07:13.796Z,6.84
2022-12-29T08:08:15.742Z,6.85
2022-12-29T08:09:22.334Z,8.38
2022-12-29T08:10:25.916Z,8.47
2022-12-29T08:11:27.618Z,8.65
2022-12-29T08:12:29.416Z,7.81
2022-12-29T08:13:31.177Z,8.19
2022-12-29T08:14:32.879Z,7.69
2022-12-29T08:15:34.575Z,7.39
2022-12-29T08:16:36.870Z,8.07
2022-12-29T08:17:38.817Z,8.27
2022-12-29T08:18:40.602Z,10.19
2022-12-29T08:19:43.789Z,12.12
2022-12-29T08:20:47.015Z,9.13
2022-12-29T08:21:50.501Z,8.07
2022-12-29T08:22:52.325Z,8.46
2022-12-29T08:23:54.100Z,8.35
2022-12-29T08:24:55.814Z,7.24
2022-12-29T08:25:58.241Z,7.80
2022-12-29T08:27:04.537Z,9.61
2022-12-29T08:28:11.115Z,8.73
2022-12-29T08:29:13.016Z,8.10
2022-12-29T08:30:14.876Z,8.03
2022-12-29T08:31:16.820Z,9.01
2022-12-29T08:32:18.971Z,8.30
2022-12-29T08:33:20.641Z,8.32
2022-12-29T08:34:22.736Z,7.90
2022-12-29T08:35:24.315Z,7.64
2022-12-29T08:36:25.913Z,7.55
2022-12-29T08:37:31.242Z,7.67
2022-12-29T08:38:33.936Z,7.48
2022-12-29T08:39:35.700Z,7.74
2022-12-29T08:40:37.284Z,7.56
2022-12-29T08:41:38.956Z,7.43
2022-12-29T08:42:40.977Z,7.90
2022-12-29T08:43:46.610Z,6.81
2022-12-29T08:44:48.894Z,7.07
2022-12-29T08:45:50.745Z,7.10
2022-12-29T08:46:52.545Z,7.23
2022-12-29T08:47:54.366Z,7.76
2022-12-29T08:48:56.142Z,7.46
2022-12-29T08:49:57.881Z,7.10
2022-12-29T08:50:59.503Z,7.26
2022-12-29T08:52:01.130Z,7.14
2022-12-29T08:53:03.080Z,7.88
2022-12-29T08:54:04.834Z,8.08
2022-12-29T08:55:07.750Z,7.62
2022-12-29T08:56:10.336Z,7.83
2022-12-29T08:57:17.537Z,7.49
2022-12-29T08:58:54.965Z,7.90
2022-12-29T08:59:57.341Z,10.44
2022-12-29T09:00:59.266Z,20.76
2022-12-29T09:02:02.765Z,11.24
2022-12-29T09:03:04.947Z,8.61
2022-12-29T09:04:16.644Z,8.80
2022-12-29T09:05:19.418Z,8.59
2022-12-29T09:06:21.770Z,8.30
2022-12-29T09:07:23.779Z,8.97
2022-12-29T09:08:26.271Z,9.36
2022-12-29T09:09:28.161Z,8.71
2022-12-29T09:10:30.514Z,8.41
2022-12-29T09:11:32.168Z,9.08
2022-12-29T09:12:36.642Z,9.04
2022-12-29T09:13:38.919Z,9.69
2022-12-29T09:14:40.818Z,11.47
2022-12-29T09:15:42.830Z,9.01
2022-12-29T09:17:03.187Z,9.95
2022-12-29T09:18:05.555Z,8.49
2022-12-29T09:19:07.417Z,8.33
2022-12-29T09:20:10.002Z,8.16
2022-12-29T09:21:12.615Z,8.86
2022-12-29T09:22:14.607Z,8.97
2022-12-29T09:23:16.411Z,7.93
2022-12-29T09:24:18.234Z,8.39
2022-12-29T09:25:19.911Z,8.89
2022-12-29T09:26:21.569Z,9.96
2022-12-29T09:27:23.378Z,11.18
2022-12-29T09:28:26.674Z,10.96
2022-12-29T09:29:28.332Z,11.33
2022-12-29T09:30:30.125Z,8.62
2022-12-29T09:31:31.971Z,8.96
2022-12-29T09:32:36.821Z,7.99
2022-12-29T09:33:41.009Z,8.18
2022-12-29T09:34:42.688Z,8.13
2022-12-29T09:35:45.990Z,8.55
2022-12-29T09:36:47.770Z,7.71
2022-12-29T09:37:49.392Z,7.74
2022-12-29T09:38:51.105Z,7.43
2022-12-29T09:39:54.694Z,8.03
2022-12-29T09:41:02.207Z,7.36
2022-12-29T09:42:22.872Z,7.58
2022-12-29T09:43:24.793Z,7.80
2022-12-29T09:44:38.545Z,7.85
2022-12-29T09:45:40.246Z,7.93
2022-12-29T09:46:45.969Z,8.13
2022-12-29T09:47:48.097Z,7.34
2022-12-29T09:48:55.273Z,7.75
2022-12-29T09:50:01.173Z,7.83
2022-12-29T09:51:09.358Z,8.11
2022-12-29T09:52:22.994Z,7.48
2022-12-29T09:53:46.485Z,7.95
2022-12-29T09:55:14.174Z,7.65
2022-12-29T09:56:19.645Z,7.86
2022-12-29T09:57:26.111Z,8.22
2022-12-29T09:58:46.439Z,8.94
2022-12-29T10:00:05.343Z,10.76
2022-12-29T10:01:21.723Z,10.98
2022-12-29T10:02:31.021Z,8.92
2022-12-29T10:03:53.197Z,8.36
2022-12-29T10:04:55.147Z,7.67
2022-12-29T10:06:00.414Z,8.18
2022-12-29T10:07:29.244Z,7.61
2022-12-29T10:08:46.572Z,8.31
2022-12-29T10:10:05.413Z,8.42
2022-12-29T10:11:13.487Z,10.47
2022-12-29T10:12:24.320Z,9.81
2022-12-29T10:13:32.321Z,9.75
2022-12-29T10:14:50.093Z,8.02
2022-12-29T10:15:51.783Z,7.62
2022-12-29T10:16:53.414Z,7.38
2022-12-29T10:18:04.206Z,7.49
2022-12-29T10:19:18.227Z,7.47
2022-12-29T10:20:32.574Z,7.18
2022-12-29T10:21:34.110Z,8.20
2022-12-29T10:22:48.286Z,8.79
2022-12-29T10:23:52.578Z,7.97
2022-12-29T10:24:57.013Z,8.40
2022-12-29T10:26:01.009Z,8.84
2022-12-29T10:27:03.980Z,8.41
2022-12-29T10:28:13.897Z,8.00
2022-12-29T10:29:26.713Z,8.00
2022-12-29T10:30:29.845Z,8.38
2022-12-29T10:31:34.334Z,8.20
2022-12-29T10:32:41.093Z,8.03
2022-12-29T10:33:43.751Z,8.16
2022-12-29T10:34:49.443Z,8.29
2022-12-29T10:35:52.008Z,8.55
2022-12-29T10:37:01.063Z,8.38
2022-12-29T10:38:12.074Z,7.99
2022-12-29T10:39:40.079Z,8.22
2022-12-29T10:40:50.509Z,8.46
2022-12-29T10:42:12.496Z,7.95
2022-12-29T10:43:23.681Z,8.47
2022-12-29T10:44:29.653Z,7.57
2022-12-29T10:45:33.555Z,8.48
2022-12-29T10:46:37.718Z,8.22
2022-12-29T10:47:48.938Z,7.57
2022-12-29T10:48:50.740Z,8.24
2022-12-29T10:49:54.894Z,8.66
2022-12-29T10:51:01.916Z,7.94
2022-12-29T10:52:05.374Z,8.03
2022-12-29T10:53:07.453Z,8.03
2022-12-29T10:54:12.065Z,8.05
2022-12-29T10:55:19.711Z,7.98
2022-12-29T10:56:32.029Z,7.80
2022-12-29T10:57:36.633Z,7.90
2022-12-29T10:58:41.680Z,7.91
2022-12-29T10:59:45.616Z,7.62
2022-12-29T11:00:51.861Z,7.85
2022-12-29T11:02:12.925Z,8.20
2022-12-29T11:03:42.693Z,8.51
2022-12-29T11:04:50.021Z,7.83
2022-12-29T11:06:03.684Z,8.13
2022-12-29T11:07:10.557Z,8.21
2022-12-29T11:08:18.298Z,8.42
2022-12-29T11:09:41.501Z,7.62
2022-12-29T11:10:45.431Z,7.55
2022-12-29T11:11:48.080Z,8.12
2022-12-29T11:12:56.143Z,8.32
2022-12-29T11:14:00.360Z,7.81
2022-12-29T11:15:11.030Z,8.09
2022-12-29T11:16:13.501Z,8.47
2022-12-29T11:17:17.201Z,8.02
2022-12-29T11:18:23.818Z,7.83
2022-12-29T11:19:28.023Z,7.85
2022-12-29T11:20:38.584Z,8.13
2022-12-29T11:21:43.142Z,8.48
2022-12-29T11:22:46.094Z,8.99
2022-12-29T11:23:56.754Z,7.86
2022-12-29T11:25:06.864Z,7.78
2022-12-29T11:26:11.603Z,8.07
2022-12-29T11:27:23.648Z,7.66
2022-12-29T11:28:30.399Z,8.06
2022-12-29T11:29:39.528Z,8.15
2022-12-29T11:30:41.119Z,7.78
2022-12-29T11:31:56.996Z,7.43
2022-12-29T11:33:03.538Z,7.82
2022-12-29T11:34:08.428Z,7.40
2022-12-29T11:35:30.187Z,7.88
2022-12-29T11:36:32.142Z,8.19
2022-12-29T11:37:43.667Z,8.97
2022-12-29T11:38:56.243Z,7.98
2022-12-29T11:40:09.029Z,7.83
2022-12-29T11:41:20.340Z,8.15
2022-12-29T11:42:25.191Z,8.49
2022-12-29T11:43:36.756Z,8.26
2022-12-29T11:44:45.278Z,7.76
2022-12-29T11:45:54.957Z,7.38
2022-12-29T11:46:56.863Z,7.76
2022-12-29T11:48:13.604Z,7.47
2022-12-29T11:49:21.135Z,7.64
2022-12-29T11:50:25.996Z,7.36
2022-12-29T11:51:30.642Z,7.59
2022-12-29T11:52:36.213Z,8.47
2022-12-29T11:53:46.730Z,8.22
2022-12-29T11:54:48.650Z,7.78
2022-12-29T11:55:56.868Z,8.08
2022-12-29T11:57:00.678Z,8.85
2022-12-29T11:58:05.475Z,8.24
2022-12-29T11:59:45.896Z,8.07
2022-12-29T12:00:51.079Z,7.60
2022-12-29T12:01:53.765Z,7.46
2022-12-29T12:03:01.419Z,7.77
2022-12-29T12:04:10.987Z,7.93
2022-12-29T12:05:21.688Z,8.15
2022-12-29T12:06:25.219Z,9.25
2022-12-29T12:07:39.839Z,8.72
2022-12-29T12:09:02.032Z,7.75
2022-12-29T12:10:08.019Z,7.97
2022-12-29T12:11:24.469Z,8.31
2022-12-29T12:12:33.169Z,7.59
2022-12-29T12:13:42.106Z,8.12
2022-12-29T12:14:55.405Z,8.62
2022-12-29T12:16:10.592Z,8.01
2022-12-29T12:17:12.429Z,7.74
2022-12-29T12:18:20.098Z,8.35
2022-12-29T12:19:39.859Z,9.19
2022-12-29T12:21:11.290Z,8.33
2022-12-29T12:22:33.372Z,8.03
2022-12-29T12:23:45.133Z,8.01
2022-12-29T12:24:54.493Z,7.96
2022-12-29T12:26:05.073Z,8.30
2022-12-29T12:27:15.271Z,9.15
2022-12-29T12:28:21.775Z,8.81
2022-12-29T12:29:46.599Z,8.90
2022-12-29T12:30:51.395Z,8.74
2022-12-29T12:31:58.659Z,8.73
2022-12-29T12:33:05.478Z,9.90
2022-12-29T12:34:13.576Z,9.17
2022-12-29T12:35:21.706Z,8.03
2022-12-29T12:36:23.773Z,8.32
2022-12-29T12:37:36.480Z,8.42
2022-12-29T12:38:40.935Z,8.12
2022-12-29T12:39:51.171Z,8.60
2022-12-29T12:41:03.126Z,8.73
2022-12-29T12:42:31.333Z,10.25
2022-12-29T12:43:53.532Z,9.22
2022-12-29T12:44:58.176Z,9.87
2022-12-29T12:46:18.602Z,9.46
2022-12-29T12:47:38.924Z,8.97
2022-12-29T12:49:00.913Z,10.01
2022-12-29T12:50:12.551Z,7.77
2022-12-29T12:51:29.480Z,8.24
2022-12-29T12:52:41.914Z,8.68
2022-12-29T12:53:43.987Z,9.34
2022-12-29T12:55:17.172Z,9.06
2022-12-29T12:56:46.957Z,12.01
2022-12-29T12:58:04.825Z,13.24
2022-12-29T12:59:26.485Z,10.09
2022-12-29T13:00:30.000Z,9.81
2022-12-29T13:01:37.777Z,9.60
2022-12-29T13:02:59.384Z,9.80
2022-12-29T13:04:10.066Z,9.13
2022-12-29T13:05:27.047Z,9.10
2022-12-29T13:06:44.222Z,8.49
2022-12-29T13:07:45.870Z,9.00
2022-12-29T13:08:50.556Z,7.78
2022-12-29T13:10:04.780Z,8.41
2022-12-29T13:21:00.498Z,12.64
2022-12-29T13:36:13.044Z,14.70
2022-12-29T13:37:19.937Z,8.08
2022-12-29T13:38:36.516Z,8.85
2022-12-29T13:39:40.320Z,10.97
2022-12-29T13:40:48.199Z,12.24
2022-12-29T13:41:54.311Z,9.44
2022-12-29T13:42:58.560Z,8.05
2022-12-29T13:44:04.599Z,8.92
2022-12-29T13:45:17.231Z,8.06
2022-12-29T13:46:34.621Z,7.43
2022-12-29T13:47:48.410Z,6.15
2022-12-29T13:48:55.638Z,6.44
2022-12-29T13:50:02.209Z,5.92
2022-12-29T13:51:08.823Z,6.18
2022-12-29T13:52:21.005Z,5.82
2022-12-29T13:53:36.063Z,5.55
2022-12-29T13:55:09.270Z,6.10
2022-12-29T13:56:17.040Z,5.39
2022-12-29T13:57:43.521Z,5.32
2022-12-29T13:59:04.602Z,5.25
2022-12-29T14:00:23.089Z,5.98
2022-12-29T14:02:05.982Z,6.77
2022-12-29T14:03:31.347Z,6.45
2022-12-29T14:04:35.988Z,7.95
2022-12-29T14:05:37.907Z,5.91
2022-12-29T14:06:41.687Z,6.17
2022-12-29T14:07:43.803Z,6.65
2022-12-29T14:08:46.614Z,7.60
2022-12-29T14:09:54.315Z,7.48
2022-12-29T14:10:56.269Z,7.28
2022-12-29T14:11:59.395Z,6.74
2022-12-29T14:13:04.540Z,8.14
2022-12-29T14:14:22.542Z,5.83
2022-12-29T14:15:27.003Z,6.52
2022-12-29T14:16:35.689Z,5.86
2022-12-29T14:17:41.286Z,6.16
2022-12-29T14:18:45.695Z,5.75
2022-12-29T14:19:54.106Z,6.51
2022-12-29T14:21:07.877Z,5.91
2022-12-29T14:22:12.003Z,7.09
2022-12-29T14:23:13.735Z,5.66
2022-12-29T14:24:34.007Z,5.55
2022-12-29T14:25:59.110Z,5.60
2022-12-29T14:27:02.197Z,5.45
2022-12-29T14:28:23.342Z,5.64
2022-12-29T14:29:25.092Z,5.28
2022-12-29T14:30:52.317Z,5.57
2022-12-29T14:31:54.215Z,5.88
2022-12-29T14:33:05.034Z,7.90
2022-12-29T14:34:06.767Z,8.25
2022-12-29T14:35:50.459Z,6.49
2022-12-29T14:37:04.168Z,6.64
2022-12-29T14:38:22.559Z,6.61
2022-12-29T14:39:44.385Z,5.53
2022-12-29T14:40:48.943Z,6.02
2022-12-29T14:42:23.594Z,6.08
2022-12-29T14:43:28.472Z,5.52
2022-12-29T14:44:30.637Z,6.26
2022-12-29T14:45:38.445Z,5.88
2022-12-29T14:46:54.940Z,6.78
2022-12-29T14:47:58.022Z,6.93
2022-12-29T14:49:02.247Z,10.92
2022-12-29T14:50:18.711Z,9.47
2022-12-29T14:51:31.992Z,9.55
2022-12-29T14:53:02.928Z,8.74
2022-12-29T14:54:33.929Z,7.53
2022-12-29T14:55:48.368Z,11.32
2022-12-29T14:56:50.335Z,11.33
2022-12-29T14:58:02.981Z,9.83
2022-12-29T14:59:11.881Z,8.85
2022-12-29T15:00:39.764Z,7.08
2022-12-29T15:01:52.882Z,8.28
2022-12-29T15:03:22.680Z,6.59
2022-12-29T15:04:32.451Z,6.85
2022-12-29T15:05:54.223Z,7.13
2022-12-29T15:06:56.706Z,7.91
2022-12-29T15:08:01.154Z,10.20
2022-12-29T15:09:23.890Z,9.15
2022-12-29T15:10:36.905Z,8.10
2022-12-29T15:11:38.803Z,10.02
2022-12-29T15:12:56.408Z,9.28
2022-12-29T15:13:58.187Z,8.41
2022-12-29T15:15:02.435Z,8.21
2022-12-29T15:16:05.584Z,7.96
2022-12-29T15:17:25.026Z,8.43
2022-12-29T15:18:31.168Z,7.13
2022-12-29T15:19:32.922Z,6.76
2022-12-29T15:20:34.823Z,6.25
2022-12-29T15:21:37.819Z,6.45
2022-12-29T15:22:45.338Z,6.59
2022-12-29T15:23:47.331Z,7.66
2022-12-29T15:24:52.933Z,7.16
2022-12-29T15:26:01.390Z,7.29
2022-12-29T15:27:06.083Z,7.23